createdAt,value
2019-02-17T00:00:29.637Z,101403.47
2019-02-17T00:01:02.832Z,101405.98
2019-02-17T00:01:35.998Z,101410.39
2019-02-17T00:02:07.879Z,101404.69
2019-02-17T00:02:39.340Z,101405.67
2019-02-17T00:03:10.724Z,101405.67
2019-02-17T00:03:43.161Z,101409.59
2019-02-17T00:04:14.510Z,101408.28
2019-02-17T00:04:45.940Z,101395.27
2019-02-17T00:05:17.441Z,101394.77
2019-02-17T00:05:48.892Z,101394.77
2019-02-17T00:06:20.215Z,101387.75
2019-02-17T00:06:51.603Z,101419.67
2019-02-17T00:07:22.993Z,101411.84
2019-02-17T00:07:54.275Z,101411.84
2019-02-17T00:08:25.626Z,101395.27
2019-02-17T00:08:56.844Z,101393.61
2019-02-17T00:09:28.175Z,101416.61
2019-02-17T00:09:59.494Z,101416.61
2019-02-17T00:10:30.798Z,101410.48
2019-02-17T00:11:02.132Z,101410.39
2019-02-17T00:11:33.369Z,101414.40
2019-02-17T00:12:04.663Z,101417.91
2019-02-17T00:12:36.006Z,101412.60
2019-02-17T00:13:07.388Z,101412.60
2019-02-17T00:13:38.657Z,101417.81
2019-02-17T00:14:10.078Z,101415.21
2019-02-17T00:14:41.394Z,101416.92
2019-02-17T00:15:12.945Z,101416.92
2019-02-17T00:15:44.344Z,101421.23
2019-02-17T00:16:15.629Z,101421.23
2019-02-17T00:16:46.994Z,101416.83
2019-02-17T00:17:18.341Z,101407.91
2019-02-17T00:17:49.675Z,101417.18
2019-02-17T00:18:23.733Z,101421.50
2019-02-17T00:18:55.111Z,101404.42
2019-02-17T00:19:26.449Z,101415.73
2019-02-17T00:19:57.764Z,101416.14
2019-02-17T00:20:29.173Z,101416.14
2019-02-17T00:21:00.588Z,101409.13
2019-02-17T00:21:31.944Z,101409.13
2019-02-17T00:22:03.211Z,101399.13
2019-02-17T00:22:34.493Z,101414.25
2019-02-17T00:23:05.769Z,101421.13
2019-02-17T00:23:37.079Z,101412.39
2019-02-17T00:24:08.475Z,101414.11
2019-02-17T00:24:39.930Z,101414.11
2019-02-17T00:25:11.207Z,101397.17
2019-02-17T00:25:42.555Z,101408.89
2019-02-17T00:26:13.861Z,101408.89
2019-02-17T00:26:45.447Z,101413.70
2019-02-17T00:27:16.769Z,101409.38
2019-02-17T00:27:48.159Z,101409.38
2019-02-17T00:28:19.471Z,101409.30
2019-02-17T00:28:59.148Z,101407.49
2019-02-17T00:29:24.042Z,101407.49
2019-02-17T00:29:55.474Z,101399.78
2019-02-17T00:30:26.748Z,101414.91
2019-02-17T00:30:58.198Z,101407.90
2019-02-17T00:31:29.520Z,101391.32
2019-02-17T00:32:00.776Z,101391.32
2019-02-17T00:32:32.201Z,101410.10
2019-02-17T00:33:03.406Z,101407.03
2019-02-17T00:33:34.850Z,101401.23
2019-02-17T00:34:07.255Z,101410.95
2019-02-17T00:34:38.658Z,101411.81
2019-02-17T00:35:09.959Z,101411.81
2019-02-17T00:35:41.306Z,101410.95
2019-02-17T00:36:12.600Z,101386.02
2019-02-17T00:36:43.914Z,101393.84
2019-02-17T00:37:15.263Z,101393.84
2019-02-17T00:37:46.574Z,101409.55
2019-02-17T00:38:17.955Z,101399.05
2019-02-17T00:38:49.287Z,101399.05
2019-02-17T00:39:20.615Z,101400.85
2019-02-17T00:39:51.933Z,101413.88
2019-02-17T00:40:23.232Z,101416.48
2019-02-17T00:40:54.490Z,101399.05
2019-02-17T00:41:25.800Z,101413.78
2019-02-17T00:41:57.123Z,101413.78
2019-02-17T00:42:28.417Z,101409.87
2019-02-17T00:42:59.832Z,101417.78
2019-02-17T00:43:31.142Z,101418.19
2019-02-17T00:44:02.458Z,101418.19
2019-02-17T00:44:33.785Z,101417.88
2019-02-17T00:45:07.465Z,101417.88
2019-02-17T00:45:38.703Z,101404.42
2019-02-17T00:46:10.112Z,101416.22
2019-02-17T00:46:41.341Z,101417.92
2019-02-17T00:47:12.985Z,101417.92
2019-02-17T00:47:44.323Z,101415.41
2019-02-17T00:48:15.855Z,101406.16
2019-02-17T00:48:47.273Z,101406.16
2019-02-17T00:49:18.619Z,101416.63
2019-02-17T00:49:50.193Z,101416.88
2019-02-17T00:50:21.566Z,101414.27
2019-02-17T00:50:52.955Z,101405.72
2019-02-17T00:51:24.388Z,101418.83
2019-02-17T00:51:55.774Z,101431.81
2019-02-17T00:52:27.230Z,101431.81
2019-02-17T00:52:58.626Z,101412.19
2019-02-17T00:53:29.883Z,101413.89
2019-02-17T00:54:01.274Z,101430.83
2019-02-17T00:54:32.501Z,101431.63
2019-02-17T00:55:06.788Z,101431.63
2019-02-17T00:55:38.136Z,101408.12
2019-02-17T00:56:09.514Z,101427.27
2019-02-17T00:56:40.759Z,101427.27
2019-02-17T00:57:12.378Z,101409.34
2019-02-17T00:57:43.681Z,101409.66
2019-02-17T00:58:15.067Z,101413.16
2019-02-17T00:58:46.364Z,101425.78
2019-02-17T00:59:17.782Z,101410.91
2019-02-17T00:59:49.155Z,101410.91
2019-02-17T01:00:20.516Z,101433.05
2019-02-17T01:00:51.822Z,101412.12
2019-02-17T01:01:23.130Z,101416.84
2019-02-17T01:01:54.638Z,101407.66
2019-02-17T01:02:25.962Z,101430.75
2019-02-17T01:02:57.267Z,101408.95
2019-02-17T01:03:28.580Z,101408.95
2019-02-17T01:04:00.121Z,101425.48
2019-02-17T01:04:31.342Z,101427.84
2019-02-17T01:05:04.524Z,101427.84
2019-02-17T01:05:36.012Z,101425.23
2019-02-17T01:06:07.608Z,101425.23
2019-02-17T01:06:38.976Z,101406.91
2019-02-17T01:07:10.368Z,101406.91
2019-02-17T01:07:41.632Z,101424.88
2019-02-17T01:08:13.173Z,101421.46
2019-02-17T01:08:44.557Z,101425.11
2019-02-17T01:09:15.929Z,101425.11
2019-02-17T01:09:47.176Z,101393.55
2019-02-17T01:10:18.554Z,101415.52
2019-02-17T01:10:49.806Z,101428.36
2019-02-17T01:11:21.218Z,101428.36
2019-02-17T01:11:52.473Z,101410.94
2019-02-17T01:12:23.863Z,101410.94
2019-02-17T01:12:55.263Z,101437.67
2019-02-17T01:13:26.638Z,101415.98
2019-02-17T01:13:57.866Z,101429.84
2019-02-17T01:14:29.170Z,101429.84
2019-02-17T01:15:00.523Z,101431.20
2019-02-17T01:15:31.913Z,101416.88
2019-02-17T01:16:03.151Z,101416.88
2019-02-17T01:16:34.546Z,101426.98
2019-02-17T01:17:05.861Z,101426.98
2019-02-17T01:17:37.206Z,101409.20
2019-02-17T01:18:09.591Z,101409.87
2019-02-17T01:18:41.036Z,101409.87
2019-02-17T01:19:12.539Z,101411.52
2019-02-17T01:19:43.947Z,101411.52
2019-02-17T01:20:15.387Z,101430.02
2019-02-17T01:20:46.810Z,101433.03
2019-02-17T01:21:18.183Z,101433.03
2019-02-17T01:21:49.653Z,101424.97
2019-02-17T01:22:21.004Z,101405.95
2019-02-17T01:22:52.392Z,101432.80
2019-02-17T01:23:23.795Z,101427.89
2019-02-17T01:23:55.035Z,101413.91
2019-02-17T01:24:26.343Z,101404.86
2019-02-17T01:24:57.561Z,101426.14
2019-02-17T01:25:28.865Z,101426.14
2019-02-17T01:26:00.087Z,101425.41
2019-02-17T01:26:31.393Z,101425.41
2019-02-17T01:27:02.706Z,101414.50
2019-02-17T01:27:34.129Z,101429.65
2019-02-17T01:28:05.464Z,101426.80
2019-02-17T01:28:36.855Z,101417.44
2019-02-17T01:29:08.183Z,101417.44
2019-02-17T01:29:39.529Z,101426.91
2019-02-17T01:30:13.177Z,101426.91
2019-02-17T01:30:44.552Z,101425.69
2019-02-17T01:31:15.930Z,101419.23
2019-02-17T01:31:47.314Z,101419.23
2019-02-17T01:32:18.595Z,101420.63
2019-02-17T01:32:50.059Z,101419.82
2019-02-17T01:33:21.509Z,101418.52
2019-02-17T01:33:52.960Z,101397.98
2019-02-17T01:34:24.402Z,101397.98
2019-02-17T01:34:55.763Z,101419.98
2019-02-17T01:35:27.119Z,101419.98
2019-02-17T01:35:58.487Z,101422.44
2019-02-17T01:36:29.850Z,101422.44
2019-02-17T01:37:01.182Z,101426.81
2019-02-17T01:37:32.530Z,101426.81
2019-02-17T01:38:03.858Z,101412.63
2019-02-17T01:38:35.154Z,101430.41
2019-02-17T01:39:06.604Z,101427.31
2019-02-17T01:39:37.916Z,101427.31
2019-02-17T01:40:09.133Z,101428.05
2019-02-17T01:40:40.534Z,101416.24
2019-02-17T01:41:11.848Z,101417.05
2019-02-17T01:41:43.202Z,101424.86
2019-02-17T01:42:14.498Z,101430.08
2019-02-17T01:42:45.939Z,101430.08
2019-02-17T01:43:17.203Z,101426.66
2019-02-17T01:43:48.677Z,101425.27
2019-02-17T01:44:20.012Z,101430.02
2019-02-17T01:44:51.296Z,101430.02
2019-02-17T01:45:22.645Z,101431.13
2019-02-17T01:45:54.053Z,101429.36
2019-02-17T01:46:25.447Z,101410.04
2019-02-17T01:46:56.788Z,101407.69
2019-02-17T01:47:28.075Z,101423.72
2019-02-17T01:47:59.516Z,101406.08
2019-02-17T01:48:31.798Z,101406.08
2019-02-17T01:49:03.166Z,101405.88
2019-02-17T01:49:34.550Z,101414.60
2019-02-17T01:50:09.010Z,101402.13
2019-02-17T01:50:40.470Z,101402.31
2019-02-17T01:51:11.857Z,101400.42
2019-02-17T01:51:43.288Z,101424.27
2019-02-17T01:52:14.630Z,101424.27
2019-02-17T01:52:45.975Z,101415.80
2019-02-17T01:53:17.419Z,101416.20
2019-02-17T01:53:48.892Z,101411.18
2019-02-17T01:54:20.241Z,101411.18
2019-02-17T01:54:51.628Z,101398.95
2019-02-17T01:55:22.994Z,101421.09
2019-02-17T01:55:54.355Z,101410.17
2019-02-17T01:56:25.623Z,101416.84
2019-02-17T01:56:56.914Z,101416.84
2019-02-17T01:57:28.158Z,101416.13
2019-02-17T01:57:59.472Z,101427.50
2019-02-17T01:58:30.751Z,101423.69
2019-02-17T01:59:02.122Z,101423.69
2019-02-17T01:59:33.552Z,101418.98
2019-02-17T02:00:10.055Z,101423.20
2019-02-17T02:00:42.562Z,101426.45
2019-02-17T02:01:13.891Z,101426.45
2019-02-17T02:01:45.274Z,101406.58
2019-02-17T02:02:16.713Z,101418.48
2019-02-17T02:02:48.127Z,101426.61
2019-02-17T02:03:19.564Z,101410.98
2019-02-17T02:03:50.958Z,101425.71
2019-02-17T02:04:22.216Z,101410.91
2019-02-17T02:04:53.563Z,101410.91
2019-02-17T02:05:24.935Z,101428.31
2019-02-17T02:05:56.316Z,101413.02
2019-02-17T02:06:27.558Z,101405.27
2019-02-17T02:06:58.989Z,101405.27
2019-02-17T02:07:30.257Z,101424.11
2019-02-17T02:08:01.670Z,101424.11
2019-02-17T02:08:33.082Z,101424.50
2019-02-17T02:09:07.810Z,101424.50
2019-02-17T02:09:39.028Z,101425.91
2019-02-17T02:10:10.381Z,101418.34
2019-02-17T02:10:41.625Z,101427.85
2019-02-17T02:11:13.163Z,101427.85
2019-02-17T02:11:44.496Z,101418.64
2019-02-17T02:12:15.707Z,101424.80
2019-02-17T02:12:46.974Z,101412.02
2019-02-17T02:13:18.289Z,101420.58
2019-02-17T02:13:49.712Z,101412.20
2019-02-17T02:14:21.073Z,101401.68
2019-02-17T02:14:52.429Z,101417.72
2019-02-17T02:15:23.781Z,101401.02
2019-02-17T02:15:55.102Z,101399.72
2019-02-17T02:16:26.371Z,101400.52
2019-02-17T02:16:57.797Z,101400.52
2019-02-17T02:17:29.097Z,101420.06
2019-02-17T02:18:01.530Z,101416.95
2019-02-17T02:18:32.847Z,101416.80
2019-02-17T02:19:04.179Z,101406.67
2019-02-17T02:19:35.421Z,101406.67
2019-02-17T02:20:10.169Z,101416.30
2019-02-17T02:20:41.553Z,101415.00
2019-02-17T02:21:13.171Z,101401.00
2019-02-17T02:21:44.479Z,101401.00
2019-02-17T02:22:15.773Z,101416.64
2019-02-17T02:22:47.020Z,101417.84
2019-02-17T02:23:18.363Z,101417.03
2019-02-17T02:23:50.660Z,101419.64
2019-02-17T02:24:21.972Z,101413.53
2019-02-17T02:24:53.211Z,101400.80
2019-02-17T02:25:24.477Z,101400.80
2019-02-17T02:25:55.752Z,101413.44
2019-02-17T02:26:26.993Z,101413.77
2019-02-17T02:26:58.293Z,101418.58
2019-02-17T02:27:29.598Z,101418.58
2019-02-17T02:28:00.944Z,101416.28
2019-02-17T02:28:32.210Z,101417.98
2019-02-17T02:29:03.485Z,101427.09
2019-02-17T02:29:41.022Z,101423.59
2019-02-17T02:30:11.433Z,101423.59
2019-02-17T02:30:42.787Z,101421.18
2019-02-17T02:31:14.120Z,101421.18
2019-02-17T02:31:45.407Z,101421.18
2019-02-17T02:32:16.861Z,101416.94
2019-02-17T02:32:48.178Z,101418.41
2019-02-17T02:33:19.586Z,101418.41
2019-02-17T02:33:50.856Z,101413.20
2019-02-17T02:34:22.173Z,101413.20
2019-02-17T02:34:53.590Z,101399.70
2019-02-17T02:35:24.954Z,101405.06
2019-02-17T02:35:56.301Z,101422.91
2019-02-17T02:36:27.680Z,101424.61
2019-02-17T02:36:58.984Z,101429.81
2019-02-17T02:37:30.360Z,101405.70
2019-02-17T02:38:01.690Z,101423.95
2019-02-17T02:38:32.962Z,101431.75
2019-02-17T02:39:05.041Z,101431.75
2019-02-17T02:39:36.372Z,101428.65
2019-02-17T02:40:07.699Z,101428.65
2019-02-17T02:40:39.076Z,101425.98
2019-02-17T02:41:10.496Z,101430.75
2019-02-17T02:41:41.791Z,101422.55
2019-02-17T02:42:13.191Z,101422.55
2019-02-17T02:42:44.506Z,101425.89
2019-02-17T02:43:15.778Z,101425.89
2019-02-17T02:43:47.031Z,101426.63
2019-02-17T02:44:18.386Z,101402.08
2019-02-17T02:44:49.647Z,101402.08
2019-02-17T02:45:20.939Z,101428.73
2019-02-17T02:45:52.186Z,101422.52
2019-02-17T02:46:23.594Z,101407.29
2019-02-17T02:46:54.806Z,101403.36
2019-02-17T02:47:26.146Z,101403.36
2019-02-17T02:47:57.409Z,101406.30
2019-02-17T02:48:28.765Z,101419.33
2019-02-17T02:49:00.108Z,101417.83
2019-02-17T02:49:31.517Z,101417.37
2019-02-17T02:50:10.883Z,101422.57
2019-02-17T02:50:42.386Z,101417.66
2019-02-17T02:51:13.738Z,101417.66
2019-02-17T02:51:45.179Z,101418.41
2019-02-17T02:52:16.493Z,101422.30
2019-02-17T02:52:47.825Z,101422.30
2019-02-17T02:53:19.176Z,101428.47
2019-02-17T02:53:50.563Z,101421.97
2019-02-17T02:54:21.937Z,101426.27
2019-02-17T02:54:53.314Z,101424.67
2019-02-17T02:55:24.698Z,101424.67
2019-02-17T02:55:55.969Z,101410.23
2019-02-17T02:56:27.323Z,101396.46
2019-02-17T02:56:58.608Z,101418.91
2019-02-17T02:57:29.956Z,101419.30
2019-02-17T02:58:01.223Z,101403.16
2019-02-17T02:58:32.582Z,101417.60
2019-02-17T02:59:03.903Z,101417.60
2019-02-17T02:59:35.131Z,101410.63
2019-02-17T03:00:10.507Z,101400.36
2019-02-17T03:00:41.906Z,101424.50
2019-02-17T03:01:13.480Z,101432.08
2019-02-17T03:01:44.928Z,101432.08
2019-02-17T03:02:16.357Z,101421.91
2019-02-17T03:02:47.745Z,101431.17
2019-02-17T03:03:19.191Z,101430.84
2019-02-17T03:03:50.698Z,101425.57
2019-02-17T03:04:22.094Z,101425.57
2019-02-17T03:04:53.489Z,101432.58
2019-02-17T03:05:24.798Z,101433.87
2019-02-17T03:05:58.922Z,101430.77
2019-02-17T03:06:32.162Z,101419.30
2019-02-17T03:07:04.625Z,101421.50
2019-02-17T03:07:35.898Z,101414.73
2019-02-17T03:08:07.159Z,101436.25
2019-02-17T03:08:38.588Z,101437.70
2019-02-17T03:09:09.896Z,101437.70
2019-02-17T03:09:41.208Z,101443.91
2019-02-17T03:10:12.504Z,101445.69
2019-02-17T03:10:43.861Z,101442.78
2019-02-17T03:11:15.091Z,101442.78
2019-02-17T03:11:46.369Z,101421.09
2019-02-17T03:12:17.653Z,101441.80
2019-02-17T03:12:48.975Z,101441.80
2019-02-17T03:13:20.271Z,101429.36
2019-02-17T03:13:51.613Z,101443.87
2019-02-17T03:14:22.888Z,101443.87
2019-02-17T03:14:54.153Z,101446.07
2019-02-17T03:15:25.508Z,101448.27
2019-02-17T03:15:56.797Z,101448.27
2019-02-17T03:16:28.102Z,101433.27
2019-02-17T03:17:00.806Z,101433.27
2019-02-17T03:17:32.215Z,101447.51
2019-02-17T03:18:03.500Z,101453.22
2019-02-17T03:18:34.893Z,101460.02
2019-02-17T03:19:06.262Z,101457.66
2019-02-17T03:19:37.651Z,101457.66
2019-02-17T03:20:09.132Z,101455.05
2019-02-17T03:20:40.496Z,101451.55
2019-02-17T03:21:11.768Z,101455.79
2019-02-17T03:21:43.163Z,101455.79
2019-02-17T03:22:14.399Z,101455.02
2019-02-17T03:22:45.748Z,101457.33
2019-02-17T03:23:17.074Z,101457.33
2019-02-17T03:23:49.488Z,101456.33
2019-02-17T03:24:20.735Z,101435.72
2019-02-17T03:24:52.177Z,101457.45
2019-02-17T03:25:23.441Z,101457.36
2019-02-17T03:25:54.762Z,101440.55
2019-02-17T03:26:25.959Z,101450.83
2019-02-17T03:26:57.290Z,101438.08
2019-02-17T03:27:28.692Z,101438.08
2019-02-17T03:28:00.119Z,101438.91
2019-02-17T03:28:31.414Z,101454.16
2019-02-17T03:29:02.761Z,101454.16
2019-02-17T03:29:34.091Z,101457.45
2019-02-17T03:30:08.924Z,101442.61
2019-02-17T03:30:40.348Z,101445.55
2019-02-17T03:31:11.745Z,101458.84
2019-02-17T03:31:43.017Z,101458.84
2019-02-17T03:32:14.295Z,101459.58
2019-02-17T03:32:45.563Z,101459.58
2019-02-17T03:33:16.863Z,101439.63
2019-02-17T03:33:48.149Z,101447.94
2019-02-17T03:34:19.650Z,101460.75
2019-02-17T03:34:51.028Z,101442.50
2019-02-17T03:35:22.317Z,101458.32
2019-02-17T03:35:53.626Z,101434.30
2019-02-17T03:36:24.992Z,101434.30
2019-02-17T03:36:56.320Z,101452.31
2019-02-17T03:37:27.709Z,101434.98
2019-02-17T03:37:59.020Z,101451.09
2019-02-17T03:38:30.310Z,101427.20
2019-02-17T03:39:01.682Z,101459.72
2019-02-17T03:39:34.282Z,101459.72
2019-02-17T03:40:07.694Z,101459.52
2019-02-17T03:40:38.965Z,101459.52
2019-02-17T03:41:10.263Z,101465.95
2019-02-17T03:41:41.557Z,101460.48
2019-02-17T03:42:12.945Z,101460.48
2019-02-17T03:42:44.295Z,101459.30
2019-02-17T03:43:15.523Z,101459.30
2019-02-17T03:43:46.789Z,101459.53
2019-02-17T03:44:18.062Z,101442.09
2019-02-17T03:44:49.368Z,101465.13
2019-02-17T03:45:20.601Z,101462.44
2019-02-17T03:45:51.961Z,101467.56
2019-02-17T03:46:23.223Z,101442.44
2019-02-17T03:46:54.627Z,101442.44
2019-02-17T03:47:25.933Z,101457.58
2019-02-17T03:47:57.271Z,101444.47
2019-02-17T03:48:28.685Z,101458.88
2019-02-17T03:49:00.061Z,101456.39
2019-02-17T03:49:31.411Z,101456.39
2019-02-17T03:50:05.000Z,101442.04
2019-02-17T03:50:36.335Z,101454.36
2019-02-17T03:51:07.645Z,101464.06
2019-02-17T03:51:38.915Z,101456.77
2019-02-17T03:52:10.326Z,101456.77
2019-02-17T03:52:41.672Z,101459.83
2019-02-17T03:53:13.178Z,101461.23
2019-02-17T03:53:44.432Z,101464.63
2019-02-17T03:54:15.712Z,101461.06
2019-02-17T03:54:46.960Z,101457.23
2019-02-17T03:55:18.330Z,101457.23
2019-02-17T03:55:49.578Z,101464.56
2019-02-17T03:56:20.930Z,101464.46
2019-02-17T03:56:52.374Z,101464.46
2019-02-17T03:57:23.770Z,101469.09
2019-02-17T03:57:56.058Z,101469.39
2019-02-17T03:58:27.423Z,101460.52
2019-02-17T03:58:58.707Z,101450.69
2019-02-17T03:59:30.204Z,101465.55
2019-02-17T04:00:02.458Z,101465.55
2019-02-17T04:00:35.481Z,101469.61
2019-02-17T04:01:06.791Z,101469.61
2019-02-17T04:01:38.075Z,101468.71
2019-02-17T04:02:09.436Z,101448.48
2019-02-17T04:02:40.773Z,101467.23
2019-02-17T04:03:12.306Z,101469.44
2019-02-17T04:03:43.600Z,101469.44
2019-02-17T04:04:14.951Z,101471.20
2019-02-17T04:04:46.221Z,101472.44
2019-02-17T04:05:17.649Z,101472.44
2019-02-17T04:05:49.041Z,101473.63
2019-02-17T04:06:20.421Z,101473.63
2019-02-17T04:06:51.681Z,101471.53
2019-02-17T04:07:22.954Z,101450.98
2019-02-17T04:07:54.259Z,101467.12
2019-02-17T04:08:25.585Z,101467.12
2019-02-17T04:08:56.875Z,101468.09
2019-02-17T04:09:28.155Z,101465.59
2019-02-17T04:09:59.439Z,101465.59
2019-02-17T04:10:30.750Z,101463.56
2019-02-17T04:11:02.050Z,101464.97
2019-02-17T04:11:33.437Z,101464.97
2019-02-17T04:12:04.842Z,101455.59
2019-02-17T04:12:36.195Z,101463.84
2019-02-17T04:13:07.460Z,101463.84
2019-02-17T04:13:38.720Z,101460.84
2019-02-17T04:14:09.989Z,101461.73
2019-02-17T04:14:41.272Z,101461.73
2019-02-17T04:15:12.638Z,101452.93
2019-02-17T04:15:43.867Z,101463.20
2019-02-17T04:16:15.246Z,101460.61
2019-02-17T04:16:46.494Z,101459.14
2019-02-17T04:17:17.937Z,101459.14
2019-02-17T04:17:49.220Z,101455.93
2019-02-17T04:18:20.628Z,101455.93
2019-02-17T04:18:51.849Z,101457.16
2019-02-17T04:19:23.193Z,101456.77
2019-02-17T04:19:54.491Z,101456.77
2019-02-17T04:20:25.843Z,101451.97
2019-02-17T04:20:57.078Z,101438.52
2019-02-17T04:21:28.391Z,101450.66
2019-02-17T04:21:59.634Z,101450.66
2019-02-17T04:22:31.044Z,101444.69
2019-02-17T04:23:02.320Z,101454.63
2019-02-17T04:23:33.705Z,101439.89
2019-02-17T04:24:04.987Z,101443.61
2019-02-17T04:24:36.425Z,101461.06
2019-02-17T04:25:07.675Z,101454.86
2019-02-17T04:25:38.991Z,101458.46
2019-02-17T04:26:10.274Z,101458.46
2019-02-17T04:26:42.616Z,101443.72
2019-02-17T04:27:13.962Z,101443.72
2019-02-17T04:27:45.357Z,101459.94
2019-02-17T04:28:16.593Z,101448.19
2019-02-17T04:28:47.954Z,101467.44
2019-02-17T04:29:19.257Z,101467.44
2019-02-17T04:29:50.691Z,101467.91
2019-02-17T04:30:29.257Z,101471.68
2019-02-17T04:30:56.309Z,101471.68
2019-02-17T04:31:27.709Z,101474.55
2019-02-17T04:31:59.073Z,101455.58
2019-02-17T04:32:30.403Z,101464.98
2019-02-17T04:33:01.659Z,101466.80
2019-02-17T04:33:32.921Z,101469.56
2019-02-17T04:34:04.182Z,101472.94
2019-02-17T04:34:35.553Z,101454.29
2019-02-17T04:35:06.884Z,101472.64
2019-02-17T04:35:38.216Z,101472.64
2019-02-17T04:36:09.594Z,101463.33
2019-02-17T04:36:40.895Z,101470.50
2019-02-17T04:37:12.490Z,101465.30
2019-02-17T04:37:43.773Z,101469.20
2019-02-17T04:38:15.057Z,101469.20
2019-02-17T04:38:46.363Z,101465.80
2019-02-17T04:39:17.770Z,101459.80
2019-02-17T04:39:49.139Z,101470.20
2019-02-17T04:40:21.497Z,101471.11
2019-02-17T04:40:52.909Z,101467.83
2019-02-17T04:41:24.209Z,101461.33
2019-02-17T04:41:55.482Z,101467.10
2019-02-17T04:42:26.906Z,101450.48
2019-02-17T04:42:58.147Z,101450.48
2019-02-17T04:43:29.383Z,101455.80
2019-02-17T04:44:00.630Z,101463.30
2019-02-17T04:44:31.975Z,101458.80
2019-02-17T04:45:05.614Z,101460.30
2019-02-17T04:45:37.063Z,101461.59
2019-02-17T04:46:08.319Z,101467.07
2019-02-17T04:46:39.653Z,101467.07
2019-02-17T04:47:10.974Z,101466.44
2019-02-17T04:47:42.547Z,101447.28
2019-02-17T04:48:13.784Z,101447.28
2019-02-17T04:48:45.057Z,101468.80
2019-02-17T04:49:16.362Z,101473.51
2019-02-17T04:49:47.802Z,101473.51
2019-02-17T04:50:19.115Z,101447.45
2019-02-17T04:50:50.626Z,101469.70
2019-02-17T04:51:21.976Z,101474.51
2019-02-17T04:51:53.312Z,101465.47
2019-02-17T04:52:24.544Z,101460.19
2019-02-17T04:52:55.868Z,101467.66
2019-02-17T04:53:27.132Z,101467.66
2019-02-17T04:53:58.438Z,101455.66
2019-02-17T04:54:29.698Z,101455.66
2019-02-17T04:55:01.022Z,101467.23
2019-02-17T04:55:32.328Z,101464.63
2019-02-17T04:56:03.636Z,101480.52
2019-02-17T04:56:34.965Z,101477.91
2019-02-17T04:57:07.324Z,101477.91
2019-02-17T04:57:38.658Z,101456.86
2019-02-17T04:58:11.159Z,101484.42
2019-02-17T04:58:42.512Z,101484.42
2019-02-17T04:59:13.824Z,101474.24
2019-02-17T04:59:45.057Z,101477.52
2019-02-17T05:00:16.462Z,101462.97
2019-02-17T05:00:49.931Z,101477.41
2019-02-17T05:01:21.100Z,101480.41
2019-02-17T05:01:52.532Z,101480.41
2019-02-17T05:02:23.960Z,101455.56
2019-02-17T05:02:55.338Z,101457.36
2019-02-17T05:03:26.813Z,101479.21
2019-02-17T05:03:58.172Z,101472.04
2019-02-17T05:04:29.533Z,101472.04
2019-02-17T05:05:01.010Z,101478.88
2019-02-17T05:05:32.385Z,101475.88
2019-02-17T05:06:03.754Z,101475.88
2019-02-17T05:06:35.022Z,101459.73
2019-02-17T05:07:06.406Z,101459.73
2019-02-17T05:07:37.712Z,101455.02
2019-02-17T05:08:09.261Z,101479.55
2019-02-17T05:08:40.532Z,101450.82
2019-02-17T05:09:11.854Z,101472.23
2019-02-17T05:09:43.091Z,101477.04
2019-02-17T05:10:14.395Z,101477.04
2019-02-17T05:10:45.758Z,101476.23
2019-02-17T05:11:17.146Z,101458.69
2019-02-17T05:11:48.523Z,101469.73
2019-02-17T05:12:19.885Z,101469.73
2019-02-17T05:12:51.264Z,101456.49
2019-02-17T05:13:22.547Z,101456.49
2019-02-17T05:13:53.792Z,101473.53
2019-02-17T05:14:25.325Z,101473.53
2019-02-17T05:14:56.671Z,101473.47
2019-02-17T05:15:27.966Z,101470.77
2019-02-17T05:15:59.270Z,101454.92
2019-02-17T05:16:30.618Z,101471.06
2019-02-17T05:17:01.863Z,101471.06
2019-02-17T05:17:33.154Z,101471.47
2019-02-17T05:18:04.480Z,101470.61
2019-02-17T05:18:35.928Z,101464.89
2019-02-17T05:19:07.611Z,101458.69
2019-02-17T05:19:38.998Z,101464.80
2019-02-17T05:20:10.303Z,101449.05
2019-02-17T05:20:41.606Z,101449.05
2019-02-17T05:21:13.088Z,101473.00
2019-02-17T05:21:45.431Z,101474.30
2019-02-17T05:22:16.812Z,101470.41
2019-02-17T05:22:48.167Z,101470.41
2019-02-17T05:23:19.435Z,101466.44
2019-02-17T05:23:50.693Z,101474.80
2019-02-17T05:24:21.977Z,101473.91
2019-02-17T05:24:53.283Z,101483.92
2019-02-17T05:25:24.728Z,101480.02
2019-02-17T05:25:56.002Z,101463.36
2019-02-17T05:26:27.272Z,101462.06
2019-02-17T05:26:58.516Z,101479.21
2019-02-17T05:27:29.901Z,101480.11
2019-02-17T05:28:01.289Z,101480.11
2019-02-17T05:28:32.682Z,101462.06
2019-02-17T05:29:03.966Z,101479.91
2019-02-17T05:29:35.228Z,101479.91
2019-02-17T05:30:09.713Z,101470.38
2019-02-17T05:30:52.215Z,101481.05
2019-02-17T05:31:14.295Z,101484.55
2019-02-17T05:31:45.620Z,101484.55
2019-02-17T05:32:17.033Z,101484.45
2019-02-17T05:32:48.362Z,101490.66
2019-02-17T05:33:19.679Z,101470.50
2019-02-17T05:33:51.038Z,101470.84
2019-02-17T05:34:22.424Z,101470.84
2019-02-17T05:34:53.662Z,101488.69
2019-02-17T05:35:25.022Z,101495.59
2019-02-17T05:35:56.266Z,101473.73
2019-02-17T05:36:27.687Z,101495.09
2019-02-17T05:36:58.932Z,101495.09
2019-02-17T05:37:30.315Z,101506.39
2019-02-17T05:38:01.568Z,101506.39
2019-02-17T05:38:32.870Z,101498.82
2019-02-17T05:39:04.677Z,101505.83
2019-02-17T05:39:36.103Z,101508.20
2019-02-17T05:40:07.343Z,101505.66
2019-02-17T05:40:38.675Z,101509.10
2019-02-17T05:41:09.988Z,101484.74
2019-02-17T05:41:41.351Z,101508.77
2019-02-17T05:42:12.891Z,101509.77
2019-02-17T05:42:44.174Z,101509.77
2019-02-17T05:43:15.559Z,101506.66
2019-02-17T05:43:46.916Z,101507.47
2019-02-17T05:44:18.353Z,101504.47
2019-02-17T05:44:49.716Z,101510.67
2019-02-17T05:45:21.003Z,101506.37
2019-02-17T05:45:52.251Z,101506.94
2019-02-17T05:46:23.596Z,101506.94
2019-02-17T05:46:54.853Z,101513.55
2019-02-17T05:47:26.175Z,101513.55
2019-02-17T05:47:57.387Z,101510.44
2019-02-17T05:48:29.462Z,101512.24
2019-02-17T05:49:00.840Z,101509.64
2019-02-17T05:49:32.260Z,101509.20
2019-02-17T05:50:04.958Z,101491.69
2019-02-17T05:50:36.333Z,101491.69
2019-02-17T05:51:07.619Z,101507.50
2019-02-17T05:51:39.276Z,101514.52
2019-02-17T05:52:10.600Z,101509.80
2019-02-17T05:52:41.902Z,101509.80
2019-02-17T05:53:13.274Z,101513.38
2019-02-17T05:53:44.632Z,101513.38
2019-02-17T05:54:15.864Z,101513.31
2019-02-17T05:54:47.162Z,101511.01
2019-02-17T05:55:18.425Z,101519.98
2019-02-17T05:55:49.910Z,101519.98
2019-02-17T05:56:21.321Z,101502.13
2019-02-17T05:56:52.668Z,101502.13
2019-02-17T05:57:24.026Z,101522.69
2019-02-17T05:57:55.428Z,101518.45
2019-02-17T05:58:26.804Z,101518.45
2019-02-17T05:58:58.215Z,101514.48
2019-02-17T05:59:29.665Z,101522.32